Time;durP1;ratioP1;P1;durP2;ratioP2;P2;SDS_P1;SDS_P2;PMS_P1;PMS_P2;Temp;Humidity;BMP_temperature;BMP_pressure;BME280_temperature;BME280_humidity;BME280_pressure;Samples;Min_cycle;Max_cycle;Signal;HPM_P1;HPM_P2
2022/11/07 00:05:23;;;;;;;6.33;4.50;;;;;;;7.17;100.00;97792.09;18566043;32;20147;-62
2022/11/07 00:15:25;;;;;;;6.20;3.77;;;;;;;7.05;100.00;97786.81;18558157;32;20442;-63
2022/11/07 00:25:28;;;;;;;3.70;3.30;;;;;;;6.97;100.00;97792.56;18571922;31;20075;-62
2022/11/07 00:35:30;;;;;;;7.03;4.03;;;;;;;7.08;100.00;97799.75;18570870;32;20052;-62
2022/11/07 00:45:32;;;;;;;5.80;4.10;;;;;;;7.21;100.00;97801.31;18570621;32;20448;-63
2022/11/07 00:55:35;;;;;;;6.63;5.07;;;;;;;7.34;100.00;97808.22;18562885;32;20075;-62
2022/11/07 01:05:37;;;;;;;7.97;6.07;;;;;;;7.43;100.00;97822.09;18569224;32;20109;-63
2022/11/07 01:15:40;;;;;;;6.40;4.53;;;;;;;7.47;100.00;97829.41;18554201;32;20100;-62
2022/11/07 01:25:43;;;;;;;5.63;4.30;;;;;;;7.55;100.00;97835.44;18568200;32;20053;-62
2022/11/07 01:35:45;;;;;;;5.00;3.67;;;;;;;7.50;100.00;97841.56;18567454;32;20087;-62
2022/11/07 01:45:48;;;;;;;4.60;3.50;;;;;;;7.26;100.00;97836.37;18566946;32;20405;-62
2022/11/07 01:55:50;;;;;;;4.10;3.13;;;;;;;7.11;100.00;97842.31;18565701;32;20079;-62
2022/11/07 02:06:08;;;;;;;3.23;2.80;;;;;;;6.83;100.00;97828.91;18565778;32;20053;-62
2022/11/07 02:16:10;;;;;;;4.57;2.77;;;;;;;6.61;100.00;97826.91;18550933;32;20373;-62
2022/11/07 02:26:13;;;;;;;3.00;2.00;;;;;;;6.39;100.00;97814.13;18424802;32;20487;-62
2022/11/07 02:36:18;;;;;;;2.43;1.23;;;;;;;6.26;100.00;97814.41;18424533;32;20453;-62
2022/11/07 02:46:21;;;;;;;1.70;1.00;;;;;;;6.15;100.00;97812.56;18424406;32;20480;-62
2022/11/07 02:56:24;;;;;;;1.63;0.90;;;;;;;5.98;100.00;97821.37;18434854;32;20057;-62
2022/11/07 03:06:26;;;;;;;1.73;0.60;;;;;;;5.88;100.00;97815.75;18496985;32;20504;-62
2022/11/07 03:16:30;;;;;;;1.67;0.87;;;;;;;5.83;100.00;97804.91;18496495;32;20045;-62
2022/11/07 03:26:32;;;;;;;1.63;0.70;;;;;;;5.77;100.00;97796.75;18496490;32;20104;-63
2022/11/07 03:36:34;;;;;;;1.07;0.50;;;;;;;5.75;100.00;97777.38;18420859;32;20391;-62
2022/11/07 03:46:37;;;;;;;2.07;0.70;;;;;;;5.75;100.00;97782.75;18421733;32;20091;-62
2022/11/07 03:56:39;;;;;;;0.90;0.50;;;;;;;5.78;100.00;97781.44;18421142;32;20115;-62
2022/11/07 04:06:41;;;;;;;1.00;0.40;;;;;;;5.86;100.00;97799.06;18479328;32;20057;-62
2022/11/07 04:37:25;;;;;;;1.53;0.40;;;;;;;5.74;100.00;97824.06;18493953;32;20060;-63
2022/11/07 04:47:28;;;;;;;0.77;0.40;;;;;;;5.64;100.00;97839.91;18494591;32;20083;-62
2022/11/07 04:57:30;;;;;;;1.50;0.50;;;;;;;5.55;100.00;97844.81;18525232;32;20044;-63
2022/11/07 05:07:32;;;;;;;1.60;0.60;;;;;;;5.45;100.00;97852.63;18569426;32;20388;-62
2022/11/07 05:17:35;;;;;;;0.80;0.40;;;;;;;5.38;100.00;97858.09;18568623;32;20057;-63
2022/11/07 05:27:38;;;;;;;1.97;1.13;;;;;;;5.31;100.00;97864.63;18561196;32;20097;-62
2022/11/07 05:37:40;;;;;;;2.33;1.27;;;;;;;5.22;100.00;97864.12;18567821;32;20061;-62
2022/11/07 05:47:43;;;;;;;2.60;1.83;;;;;;;5.16;100.00;97867.75;18566829;32;20116;-62
2022/11/07 05:57:46;;;;;;;2.87;1.70;;;;;;;5.05;100.00;97867.47;18414572;32;20125;-62
2022/11/07 06:07:48;;;;;;;4.33;1.70;;;;;;;4.92;100.00;97865.00;18425902;32;20122;-63
2022/11/07 06:17:51;;;;;;;3.00;1.70;;;;;;;4.90;100.00;97883.97;18425797;32;20129;-62
2022/11/07 06:27:59;;;;;;;2.53;1.50;;;;;;;5.05;100.00;97880.88;18484034;32;20054;-62
2022/11/07 06:38:04;;;;;;;2.60;1.87;;;;;;;5.24;100.00;97888.84;18498874;32;20053;-62
2022/11/07 06:48:09;;;;;;;2.37;1.70;;;;;;;5.49;100.00;97903.94;18496811;32;20064;-62
2022/11/07 06:58:12;;;;;;;2.60;1.80;;;;;;;5.60;100.00;97919.22;18523376;32;20079;-62
2022/11/07 07:08:15;;;;;;;2.23;1.80;;;;;;;5.65;100.00;97922.03;18562026;32;20084;-62
2022/11/07 07:18:19;;;;;;;4.07;2.50;;;;;;;5.70;100.00;97924.84;18561015;32;20101;-62
2022/11/07 07:28:22;;;;;;;5.00;2.90;;;;;;;5.85;100.00;97931.59;18560759;32;20089;-63
2022/11/07 07:38:25;;;;;;;3.67;2.60;;;;;;;6.03;100.00;97933.38;18560841;32;20072;-63
2022/11/07 07:48:35;;;;;;;3.13;2.17;;;;;;;6.26;100.00;97943.28;18421117;32;20085;-63
2022/11/07 07:58:46;;;;;;;3.10;1.97;;;;;;;6.46;100.00;97931.38;18408836;32;20057;-63
2022/11/07 08:08:50;;;;;;;2.97;2.13;;;;;;;6.66;100.00;97926.41;18420586;32;20385;-63
2022/11/07 08:18:53;;;;;;;2.43;1.77;;;;;;;7.00;100.00;97918.44;18408451;32;20105;-62
2022/11/07 08:28:56;;;;;;;2.97;2.00;;;;;;;7.26;100.00;97917.06;18493700;32;20099;-62
2022/11/07 08:39:07;;;;;;;3.80;2.70;;;;;;;7.54;100.00;97917.25;18483766;32;20090;-63
2022/11/07 08:49:15;;;;;;;4.53;3.63;;;;;;;7.99;100.00;97932.47;18496248;32;20094;-63
2022/11/07 08:59:21;;;;;;;6.07;3.90;;;;;;;8.40;100.00;97924.12;18535992;32;20075;-62
2022/11/07 09:09:28;;;;;;;4.90;3.17;;;;;;;8.83;100.00;97925.25;18569189;32;20052;-62
2022/11/07 09:19:46;;;;;;;5.20;3.10;;;;;;;9.18;100.00;97925.88;18556336;32;20094;-62
2022/11/07 09:29:51;;;;;;;2.87;1.95;;;;;;;9.38;100.00;97928.78;18493379;32;20105;-62
2022/11/07 09:40:39;;;;;;;;;;;;;;;;;;;;;
2022/11/07 09:52:02;;;;;;;3.78;1.77;;;;;;;10.03;100.00;97931.47;18300193;32;20520;-62
2022/11/07 10:02:19;;;;;;;2.45;1.30;;;;;;;10.40;100.00;97933.34;18299213;32;20240;-62
2022/11/07 10:12:40;;;;;;;5.68;1.70;;;;;;;10.94;100.00;97944.94;18298310;32;20096;-62
2022/11/07 10:23:00;;;;;;;2.80;1.77;;;;;;;11.65;100.00;97946.16;18352227;32;20061;-63
2022/11/07 10:33:17;;;;;;;3.95;1.75;;;;;;;11.98;100.00;97952.13;18434469;32;20067;-63
2022/11/07 10:43:41;;;;;;;2.72;1.80;;;;;;;12.10;100.00;97936.41;18433843;32;20095;-62
2022/11/07 10:53:46;;;;;;;2.83;1.60;;;;;;;12.16;97.25;97940.72;18432826;32;20088;-62
2022/11/07 11:04:11;;;;;;;2.10;1.30;;;;;;;12.66;98.02;97940.88;18494851;32;20055;-63
2022/11/07 11:14:20;;;;;;;2.75;1.23;;;;;;;13.25;94.66;97941.16;18496708;32;20112;-63
2022/11/07 11:24:37;;;;;;;2.25;1.17;;;;;;;13.71;90.90;97937.31;18496516;32;20373;-62
2022/11/07 11:35:30;;;;;;;1.70;1.08;;;;;;;13.77;87.55;97928.00;18483207;32;20049;-63
2022/11/07 11:46:04;;;;;;;4.15;1.17;;;;;;;13.65;88.58;97916.69;18482273;32;20045;-63
2022/11/07 11:56:17;;;;;;;4.40;0.60;;;;;;;13.71;87.06;97910.94;18494766;32;20395;-63
2022/11/07 12:06:38;;;;;;;1.12;0.43;;;;;;;14.30;77.92;97905.50;18494314;32;20369;-63
2022/11/07 12:17:20;;;;;;;0.50;0.20;;;;;;;14.52;77.28;97896.00;18507718;32;20049;-63
2022/11/07 12:27:54;;;;;;;2.37;0.50;;;;;;;14.57;73.18;97898.69;18492672;32;20057;-63
2022/11/07 12:38:33;;;;;;;2.30;0.40;;;;;;;15.00;72.89;97893.25;18506061;32;20076;-63
2022/11/07 12:48:54;;;;;;;1.50;0.25;;;;;;;15.30;62.93;97888.47;18505505;32;20075;-63
2022/11/07 12:59:12;;;;;;;1.00;0.20;;;;;;;15.20;62.46;97867.66;18533838;32;20071;-63
2022/11/07 13:10:00;;;;;;;1.55;0.10;;;;;;;14.95;69.00;97868.00;18565474;32;20048;-63
2022/11/07 13:20:29;;;;;;;0.20;0.10;;;;;;;14.91;59.27;97865.88;18564939;32;20104;-63
2022/11/07 13:30:52;;;;;;;1.45;0.30;;;;;;;14.87;62.93;97845.00;18425673;32;20070;-63
2022/11/07 13:41:01;;;;;;;0.85;0.20;;;;;;;14.89;58.80;97840.84;18425107;32;20137;-63
2022/11/07 13:51:12;;;;;;;0.35;0.10;;;;;;;15.06;57.71;97834.06;18296759;32;20089;-63
2022/11/07 14:01:17;;;;;;;0.43;0.20;;;;;;;14.99;59.77;97842.63;18311363;32;20477;-62
2022/11/07 14:11:41;;;;;;;0.60;0.20;;;;;;;14.72;66.16;97840.56;18362861;32;20121;-63
2022/11/07 14:21:46;;;;;;;2.05;0.20;;;;;;;14.43;69.79;97846.88;18388755;32;20100;-62
2022/11/07 14:31:50;;;;;;;0.32;0.10;;;;;;;14.32;71.68;97845.38;18497994;32;20049;-63
2022/11/07 14:41:57;;;;;;;1.60;0.75;;;;;;;14.06;72.10;97835.59;18498569;32;20147;-62
2022/11/07 14:52:01;;;;;;;1.20;0.40;;;;;;;13.74;74.29;97833.47;18498011;32;20067;-62
2022/11/07 15:02:07;;;;;;;4.57;0.70;;;;;;;13.43;77.42;97822.06;18548244;32;20081;-62
2022/11/07 15:12:50;;;;;;;10.27;5.90;;;;;;;12.98;79.92;97809.34;18547976;32;20056;-62
2022/11/07 15:22:52;;;;;;;3.33;1.92;;;;;;;12.60;81.91;97798.19;18554799;32;20057;-63
2022/11/07 15:32:57;;;;;;;1.55;0.65;;;;;;;12.37;83.27;97814.06;18546540;32;20365;-63
2022/11/07 15:43:04;;;;;;;0.95;0.32;;;;;;;12.06;86.34;97815.25;18560537;32;20437;-63
2022/11/07 15:53:24;;;;;;;0.65;0.17;;;;;;;11.79;87.73;97814.47;18560263;32;20048;-62
2022/11/07 16:03:28;;;;;;;0.65;0.10;;;;;;;11.41;89.85;97813.97;18493870;32;20064;-63
2022/11/07 16:13:32;;;;;;;0.55;0.10;;;;;;;10.88;92.24;97803.44;18494764;32;20098;-62
2022/11/07 16:23:36;;;;;;;1.02;0.50;;;;;;;10.44;95.19;97801.97;18480391;32;20391;-62
2022/11/07 16:33:39;;;;;;;1.63;0.83;;;;;;;10.00;97.90;97805.81;18494064;32;20493;-62
2022/11/07 16:43:43;;;;;;;2.27;1.10;;;;;;;9.54;99.61;97819.06;18494971;32;20102;-62
2022/11/07 16:53:46;;;;;;;1.60;1.27;;;;;;;9.14;100.00;97823.88;18505490;32;20113;-62
2022/11/07 17:03:50;;;;;;;1.77;1.17;;;;;;;8.79;100.00;97827.84;18566740;32;20073;-63
2022/11/07 17:13:53;;;;;;;;;;;;;;;8.45;100.00;97817.25;18562813;32;20053;-62
2022/11/07 17:23:58;;;;;;;1.60;0.60;;;;;;;8.15;100.00;97820.38;18555145;32;19960;-62
2022/11/07 17:34:01;;;;;;;;;;;;;;;7.87;100.00;97821.37;18568615;32;20048;-63
2022/11/07 17:44:04;;;;;;;0.67;0.40;;;;;;;7.67;100.00;97816.50;18567883;32;20348;-62
2022/11/07 17:54:10;;;;;;;1.63;0.67;;;;;;;7.44;100.00;97829.91;18566430;32;20060;-62
2022/11/07 18:04:13;;;;;;;1.93;0.80;;;;;;;7.28;100.00;97814.59;18565611;32;20048;-62
2022/11/07 18:14:15;;;;;;;0.80;0.60;;;;;;;7.11;100.00;97818.09;18551398;32;20040;-63
2022/11/07 18:24:19;;;;;;;2.47;0.80;;;;;;;6.93;100.00;97819.16;18564986;32;20060;-62
2022/11/07 18:34:22;;;;;;;1.17;0.90;;;;;;;6.79;100.00;97810.56;18550182;32;20403;-62
2022/11/07 18:44:25;;;;;;;1.67;0.90;;;;;;;6.64;100.00;97814.84;18563900;32;20097;-62
2022/11/07 18:54:28;;;;;;;2.80;1.20;;;;;;;6.48;100.00;97806.50;18548325;32;20063;-62
2022/11/07 19:04:31;;;;;;;1.00;0.67;;;;;;;6.31;100.00;97806.44;18410982;32;20129;-62
2022/11/07 19:14:34;;;;;;;1.83;1.03;;;;;;;6.15;100.00;97805.31;18231596;32;20088;-63
2022/11/07 19:24:36;;;;;;;2.23;1.27;;;;;;;5.99;100.00;97809.59;18231469;32;20395;-62
2022/11/07 19:34:39;;;;;;;4.47;1.93;;;;;;;5.83;100.00;97810.28;18204891;32;20481;-62
2022/11/07 19:44:42;;;;;;;4.27;3.10;;;;;;;5.67;100.00;97812.63;18381871;32;20072;-62
2022/11/07 19:54:52;;;;;;;5.10;3.07;;;;;;;5.58;100.00;97819.41;18421232;32;20347;-62
2022/11/07 20:04:55;;;;;;;3.23;2.60;;;;;;;5.45;100.00;97811.59;18480713;32;20057;-62
2022/11/07 20:14:58;;;;;;;3.90;2.43;;;;;;;5.27;100.00;97802.59;18494813;32;20052;-62
2022/11/07 20:25:03;;;;;;;3.63;2.17;;;;;;;5.25;100.00;97802.03;18503803;32;20076;-62
2022/11/07 20:35:07;;;;;;;3.57;2.30;;;;;;;5.12;100.00;97799.56;18506649;32;20123;-62
2022/11/07 20:45:12;;;;;;;3.90;2.20;;;;;;;4.92;100.00;97806.06;18505857;32;20061;-62
2022/11/07 20:55:15;;;;;;;4.32;2.45;;;;;;;4.80;100.00;97794.50;18511232;32;20054;-62
2022/11/07 21:05:17;;;;;;;4.23;2.83;;;;;;;4.68;100.00;97792.59;18555743;32;20052;-62
2022/11/07 21:15:20;;;;;;;5.23;3.40;;;;;;;4.60;100.00;97798.28;18555043;32;20068;-62
2022/11/07 21:25:23;;;;;;;4.70;3.33;;;;;;;4.52;100.00;97785.22;18554442;32;20101;-62
2022/11/07 21:35:25;;;;;;;4.33;2.33;;;;;;;4.52;100.00;97779.84;18428667;32;20073;-63
2022/11/07 21:45:34;;;;;;;2.93;2.23;;;;;;;4.41;100.00;97763.53;18416427;32;20088;-62
2022/11/07 21:55:37;;;;;;;3.40;2.40;;;;;;;4.31;100.00;97759.78;18414335;32;20057;-62
2022/11/07 22:05:39;;;;;;;3.57;2.27;;;;;;;4.24;100.00;97757.19;18426203;32;20054;-62
2022/11/07 22:15:42;;;;;;;4.53;2.90;;;;;;;4.28;100.00;97736.94;18500778;32;20384;-62
2022/11/07 22:25:44;;;;;;;4.20;2.17;;;;;;;4.20;100.00;97726.56;18499885;32;20061;-62
2022/11/07 22:35:47;;;;;;;6.33;3.67;;;;;;;4.20;100.00;97726.56;18499172;32;20068;-62
2022/11/07 22:45:51;;;;;;;22.03;8.40;;;;;;;4.10;100.00;97713.72;18497958;32;20061;-62
2022/11/07 22:55:53;;;;;;;15.17;5.30;;;;;;;4.11;100.00;97703.84;18508323;32;20079;-62
2022/11/07 23:05:56;;;;;;;20.57;8.17;;;;;;;4.11;100.00;97699.31;18562644;32;20139;-62
2022/11/07 23:15:59;;;;;;;13.07;6.43;;;;;;;4.06;100.00;97686.59;18562072;32;20483;-62
2022/11/07 23:26:03;;;;;;;6.27;3.20;;;;;;;4.07;100.00;97677.53;18561591;32;20057;-62
2022/11/07 23:36:14;;;;;;;5.53;2.63;;;;;;;4.07;100.00;97666.84;18561007;32;20109;-62
2022/11/07 23:56:37;;;;;;;3.87;2.23;;;;;;;3.99;100.00;97658.31;18566976;32;20378;-62
